Time;durP1;ratioP1;P1;durP2;ratioP2;P2;SDS_P1;SDS_P2;PMS_P1;PMS_P2;Temp;Humidity;BMP_temperature;BMP_pressure;BME280_temperature;BME280_humidity;BME280_pressure;Samples;Min_cycle;Max_cycle;Signal;HPM_P1;HPM_P2
2022/11/28 00:01:06;;;;;;;7.37;4.03;;;;;;;6.65;100.00;149127.94;5023784;28;20022;-63
2022/11/28 00:03:31;;;;;;;9.03;4.17;;;;;;;6.65;100.00;149127.94;5031879;28;20094;-62
2022/11/28 00:06:05;;;;;;;7.10;3.53;;;;;;;6.67;100.00;149134.44;5025550;28;20025;-62
2022/11/28 00:08:31;;;;;;;7.43;3.57;;;;;;;6.71;100.00;149143.47;5029716;28;20021;-63
2022/11/28 00:10:57;;;;;;;9.17;4.47;;;;;;;6.74;100.00;149151.19;5026256;28;20036;-63
2022/11/28 00:13:22;;;;;;;8.20;4.00;;;;;;;6.73;100.00;149148.63;5031878;28;20029;-63
2022/11/28 00:15:55;;;;;;;9.10;4.60;;;;;;;6.73;100.00;149148.63;5030421;28;20040;-63
2022/11/28 00:18:21;;;;;;;9.13;3.97;;;;;;;6.68;100.00;149137.00;5028216;28;20049;-62
2022/11/28 00:20:46;;;;;;;7.63;4.23;;;;;;;6.74;100.00;149151.19;5027630;28;20551;-63
2022/11/28 00:23:11;;;;;;;6.77;3.40;;;;;;;6.75;100.00;149153.78;5028182;28;20532;-62
2022/11/28 00:25:37;;;;;;;4.53;2.57;;;;;;;6.77;100.00;149158.94;5037073;28;20032;-62
2022/11/28 00:28:02;;;;;;;6.83;3.37;;;;;;;6.77;100.00;149158.94;5026008;28;20033;-62
2022/11/28 00:30:27;;;;;;;6.10;3.33;;;;;;;6.76;100.00;149156.34;5028234;28;20029;-62
2022/11/28 00:32:53;;;;;;;8.40;4.13;;;;;;;6.79;100.00;149162.84;5030087;28;20068;-62
2022/11/28 00:35:18;;;;;;;4.47;2.53;;;;;;;6.78;100.00;149161.50;5031525;28;20087;-63
2022/11/28 00:37:44;;;;;;;5.10;2.63;;;;;;;6.79;100.00;149162.84;5032223;28;20079;-62
2022/11/28 00:40:09;;;;;;;7.57;4.20;;;;;;;6.82;100.00;149170.56;5032139;28;20074;-64
2022/11/28 00:42:35;;;;;;;9.13;4.03;;;;;;;6.85;100.00;149179.59;5024954;28;20061;-62
2022/11/28 00:45:00;;;;;;;6.53;2.57;;;;;;;6.83;100.00;149174.44;5027465;28;20101;-63
2022/11/28 00:47:25;;;;;;;9.30;3.30;;;;;;;6.83;100.00;149174.44;5026467;28;20029;-62
2022/11/28 00:49:51;;;;;;;9.37;4.50;;;;;;;6.82;100.00;149171.88;5032127;28;20459;-62
2022/11/28 00:52:16;;;;;;;8.60;4.10;;;;;;;6.85;100.00;149178.31;5026377;28;20030;-62
2022/11/28 00:54:43;;;;;;;5.80;3.30;;;;;;;6.82;100.00;149171.88;5026046;28;20025;-62
2022/11/28 00:57:09;;;;;;;7.27;3.57;;;;;;;6.85;100.00;149179.59;5028941;28;20033;-64
2022/11/28 00:59:34;;;;;;;7.77;4.23;;;;;;;6.88;100.00;149187.34;5034769;28;20075;-62
2022/11/28 01:02:00;;;;;;;8.60;4.80;;;;;;;6.90;100.00;149191.19;5030920;28;20480;-62
2022/11/28 01:04:26;;;;;;;7.70;2.97;;;;;;;6.85;100.00;149179.59;5027588;28;20029;-63
2022/11/28 01:06:52;;;;;;;7.10;3.27;;;;;;;6.87;100.00;149184.75;5031501;28;20029;-62
2022/11/28 01:09:20;;;;;;;3.60;2.00;;;;;;;6.88;100.00;149187.34;5029274;28;20021;-62
2022/11/28 01:11:47;;;;;;;8.53;2.50;;;;;;;6.86;100.00;149182.19;5030823;28;20253;-62
2022/11/28 01:14:15;;;;;;;5.50;2.63;;;;;;;6.85;100.00;149179.59;5029319;28;20484;-62
2022/11/28 01:16:41;;;;;;;7.40;3.50;;;;;;;6.82;100.00;149171.88;5019675;28;20535;-62
2022/11/28 01:19:06;;;;;;;8.03;4.23;;;;;;;6.87;100.00;149184.75;5030265;28;20021;-61
2022/11/28 01:21:33;;;;;;;8.50;3.97;;;;;;;6.88;100.00;149187.34;5028877;28;20021;-62
2022/11/28 01:23:59;;;;;;;9.00;3.03;;;;;;;6.88;100.00;149187.34;5027111;28;20017;-62
2022/11/28 01:26:26;;;;;;;5.63;2.50;;;;;;;6.90;100.00;149191.19;5018496;28;20025;-62
2022/11/28 01:28:53;;;;;;;8.00;4.33;;;;;;;6.95;100.00;149205.44;5028271;28;20032;-63
2022/11/28 01:31:21;;;;;;;10.63;4.20;;;;;;;6.93;100.00;149200.28;5021246;28;20033;-62
2022/11/28 01:33:47;;;;;;;8.50;4.73;;;;;;;6.99;100.00;149215.75;5030395;28;20121;-63
2022/11/28 01:36:13;;;;;;;7.67;4.33;;;;;;;6.99;100.00;149215.75;5027387;28;20104;-62
2022/11/28 01:38:39;;;;;;;7.47;4.03;;;;;;;6.96;100.00;149208.00;5033625;28;20029;-62
2022/11/28 01:41:06;;;;;;;8.07;3.67;;;;;;;7.02;100.00;149223.47;5028684;28;20424;-62
2022/11/28 01:43:32;;;;;;;8.50;4.07;;;;;;;7.03;100.00;149226.09;5030808;28;20013;-62
2022/11/28 01:45:57;;;;;;;8.00;4.87;;;;;;;7.03;100.00;149226.09;5020927;28;20484;-62
2022/11/28 01:48:30;;;;;;;6.63;3.63;;;;;;;7.03;100.00;149224.81;5030699;28;20413;-62
2022/11/28 01:50:59;;;;;;;8.57;4.47;;;;;;;7.03;100.00;149226.09;5026049;28;20036;-62
2022/11/28 01:53:29;;;;;;;8.30;3.37;;;;;;;7.03;100.00;149226.09;5029914;28;20075;-62
2022/11/28 01:55:58;;;;;;;7.40;4.20;;;;;;;7.02;100.00;149223.47;5021853;28;20025;-62
2022/11/28 01:58:24;;;;;;;6.97;3.40;;;;;;;7.05;100.00;149229.97;5030464;28;20033;-62
2022/11/28 02:00:50;;;;;;;8.63;3.90;;;;;;;7.07;100.00;149233.84;5032412;28;20040;-62
2022/11/28 02:03:29;;;;;;;8.37;4.47;;;;;;;7.11;100.00;149245.44;5035437;28;20088;-62
2022/11/28 02:05:56;;;;;;;6.77;3.40;;;;;;;7.08;100.00;149237.72;5027206;28;20026;-62
2022/11/28 02:08:21;;;;;;;8.37;4.77;;;;;;;7.09;100.00;149239.00;5027278;28;20386;-61
2022/11/28 02:11:24;;;;;;;8.13;4.07;;;;;;;7.05;100.00;149231.25;5029830;28;20017;-62
2022/11/28 02:13:49;;;;;;;6.17;2.97;;;;;;;7.01;100.00;149219.59;5026858;28;20080;-62
2022/11/28 02:16:15;;;;;;;9.50;4.57;;;;;;;7.07;100.00;149233.84;5022565;28;20057;-61
2022/11/28 02:18:58;;;;;;;8.10;4.50;;;;;;;7.04;100.00;149228.69;5022308;28;20028;-62
2022/11/28 02:21:54;;;;;;;6.43;3.33;;;;;;;6.97;100.00;149210.59;5029172;28;20028;-62
2022/11/28 02:24:48;;;;;;;7.33;4.40;;;;;;;7.02;100.00;149223.47;5026411;28;20031;-61
2022/11/28 02:27:30;;;;;;;8.13;3.70;;;;;;;7.01;100.00;149219.59;5026291;28;20550;-61
2022/11/28 02:29:56;;;;;;;9.77;4.73;;;;;;;6.91;100.00;149193.81;5030938;28;20038;-63
2022/11/28 02:32:24;;;;;;;9.70;3.90;;;;;;;6.81;100.00;149168.00;5027881;28;20060;-63
2022/11/28 02:35:12;;;;;;;3.40;2.10;;;;;;;6.74;100.00;149152.47;5024114;28;20040;-62
2022/11/28 02:37:53;;;;;;;7.93;4.60;;;;;;;6.74;100.00;149151.19;5025021;28;20033;-62
2022/11/28 02:40:27;;;;;;;8.17;3.80;;;;;;;6.73;100.00;149148.63;5026968;28;20028;-61
2022/11/28 02:43:04;;;;;;;9.87;4.20;;;;;;;6.74;100.00;149152.47;5022450;28;20539;-61
2022/11/28 02:46:02;;;;;;;8.27;3.73;;;;;;;6.75;100.00;149155.06;5029203;28;20120;-62
2022/11/28 02:48:39;;;;;;;7.80;4.13;;;;;;;6.81;100.00;149168.00;5028072;28;20021;-62
2022/11/28 02:51:12;;;;;;;7.73;4.43;;;;;;;6.82;100.00;149171.88;5028946;28;20057;-61
2022/11/28 02:53:40;;;;;;;7.43;4.20;;;;;;;6.84;100.00;149175.72;5027232;28;20029;-61
2022/11/28 02:56:09;;;;;;;5.83;3.17;;;;;;;6.86;100.00;149182.19;5028042;28;20021;-61
2022/11/28 02:58:35;;;;;;;7.60;3.50;;;;;;;6.86;100.00;149182.19;5026779;28;20382;-62
2022/11/28 03:01:00;;;;;;;4.37;2.07;;;;;;;6.91;100.00;149195.13;5027391;28;20354;-61
2022/11/28 03:03:35;;;;;;;7.77;3.27;;;;;;;6.97;100.00;149210.59;5029109;28;20097;-62
2022/11/28 03:06:09;;;;;;;8.40;4.07;;;;;;;6.98;100.00;149213.16;5027068;28;20029;-61
2022/11/28 03:09:04;;;;;;;5.67;2.90;;;;;;;6.97;100.00;149209.28;5031711;28;20662;-62
2022/11/28 03:11:33;;;;;;;9.33;4.17;;;;;;;6.97;100.00;149210.59;5025326;28;20034;-61
2022/11/28 03:14:19;;;;;;;7.00;2.93;;;;;;;6.92;100.00;149197.69;5025492;28;20048;-63
2022/11/28 03:16:55;;;;;;;7.70;3.60;;;;;;;6.90;100.00;149192.50;5023402;28;20044;-64
2022/11/28 03:19:34;;;;;;;5.60;2.90;;;;;;;6.90;100.00;149191.19;5029542;28;20017;-63
2022/11/28 03:22:23;;;;;;;8.67;3.10;;;;;;;6.87;100.00;149184.75;5024218;28;20461;-64
2022/11/28 03:25:16;;;;;;;7.07;2.67;;;;;;;6.82;100.00;149171.88;5029103;28;20025;-63
2022/11/28 03:27:46;;;;;;;4.87;1.70;;;;;;;6.83;100.00;149174.44;5023567;28;20056;-64
2022/11/28 03:30:29;;;;;;;5.50;2.83;;;;;;;6.84;100.00;149175.72;5022697;28;20113;-64
2022/11/28 03:32:56;;;;;;;4.00;2.30;;;;;;;6.79;100.00;149164.13;5030440;28;20214;-63
2022/11/28 03:35:27;;;;;;;6.13;2.63;;;;;;;6.76;100.00;149156.34;5024815;28;20033;-63
2022/11/28 03:37:57;;;;;;;7.77;3.90;;;;;;;6.72;100.00;149147.31;5029680;28;20036;-63
2022/11/28 03:40:29;;;;;;;4.53;2.40;;;;;;;6.69;100.00;149138.31;5025055;28;20017;-63
2022/11/28 03:43:03;;;;;;;8.87;4.63;;;;;;;6.69;100.00;149138.31;5030679;28;20500;-63
2022/11/28 03:45:39;;;;;;;6.57;3.73;;;;;;;6.68;100.00;149135.72;5027221;28;20025;-63
2022/11/28 03:48:23;;;;;;;4.83;2.20;;;;;;;6.67;100.00;149134.44;5030331;28;20119;-64
2022/11/28 03:51:06;;;;;;;8.20;3.57;;;;;;;6.68;100.00;149137.00;5025887;28;20018;-63
2022/11/28 03:53:48;;;;;;;5.73;3.03;;;;;;;6.73;100.00;149149.91;5027447;28;20037;-63
2022/11/28 03:56:19;;;;;;;7.18;3.63;;;;;;;6.80;100.00;149166.72;5031542;28;20109;-63
2022/11/28 03:58:54;;;;;;;8.63;3.50;;;;;;;6.82;100.00;149171.88;5032382;28;20034;-63
2022/11/28 04:01:46;;;;;;;9.40;5.10;;;;;;;6.79;100.00;149164.13;5028977;28;20032;-63
2022/11/28 04:04:34;;;;;;;;;;;;;;;6.77;100.00;149158.94;5031895;28;20029;-63
2022/11/28 04:07:05;;;;;;;8.17;3.30;;;;;;;6.74;100.00;149152.47;5031957;28;19913;-63
2022/11/28 04:09:36;;;;;;;9.88;5.18;;;;;;;6.74;100.00;149151.19;5033323;28;20048;-63
2022/11/28 04:12:26;;;;;;;8.82;4.13;;;;;;;6.76;100.00;149156.34;5031919;28;20029;-63
2022/11/28 04:15:00;;;;;;;6.57;3.43;;;;;;;6.79;100.00;149164.13;5029496;28;20057;-63
2022/11/28 04:17:34;;;;;;;7.73;2.80;;;;;;;6.82;100.00;149171.88;5027540;28;20033;-64
2022/11/28 04:20:24;;;;;;;6.57;3.27;;;;;;;6.87;100.00;149183.47;5030810;28;20033;-63
2022/11/28 04:23:02;;;;;;;8.87;4.33;;;;;;;6.90;100.00;149192.50;5028581;28;20025;-63
2022/11/28 04:25:33;;;;;;;12.23;4.10;;;;;;;6.92;100.00;149196.41;5032390;28;20025;-63
2022/11/28 04:28:03;;;;;;;8.53;4.13;;;;;;;6.92;100.00;149197.69;5030976;28;20021;-63
2022/11/28 04:30:28;;;;;;;7.80;4.30;;;;;;;6.92;100.00;149197.69;5027778;28;20491;-63
2022/11/28 04:33:00;;;;;;;5.70;2.63;;;;;;;6.88;100.00;149187.34;5031672;28;20120;-63
2022/11/28 04:35:31;;;;;;;8.80;5.47;;;;;;;6.85;100.00;149179.59;5027761;28;20021;-63
2022/11/28 04:37:58;;;;;;;6.77;3.80;;;;;;;6.86;100.00;149182.19;5031602;28;20821;-63
2022/11/28 04:40:26;;;;;;;6.57;3.20;;;;;;;6.87;100.00;149184.75;5029475;28;20475;-63
2022/11/28 04:43:02;;;;;;;6.43;3.27;;;;;;;6.87;100.00;149184.75;5029719;28;20022;-63
2022/11/28 04:45:34;;;;;;;11.30;4.87;;;;;;;6.85;100.00;149179.59;5026831;28;20030;-63
2022/11/28 04:48:00;;;;;;;7.10;3.67;;;;;;;6.81;100.00;149169.28;5027593;28;20037;-63
2022/11/28 04:50:31;;;;;;;8.90;3.33;;;;;;;6.82;100.00;149171.88;5027109;28;20025;-63
2022/11/28 04:53:15;;;;;;;8.20;4.68;;;;;;;6.86;100.00;149180.88;5033461;28;20048;-63
2022/11/28 04:55:54;;;;;;;8.47;4.57;;;;;;;6.86;100.00;149182.19;5023950;28;20022;-63
2022/11/28 04:58:31;;;;;;;5.93;3.20;;;;;;;6.83;100.00;149174.44;5031142;28;20029;-63
2022/11/28 05:00:58;;;;;;;11.17;5.77;;;;;;;6.79;100.00;149164.13;5027041;28;20045;-63
2022/11/28 05:03:27;;;;;;;9.23;5.23;;;;;;;6.74;100.00;149152.47;5028940;28;20029;-63
2022/11/28 05:05:52;;;;;;;10.30;6.20;;;;;;;6.68;100.00;149135.72;5028911;28;20025;-63
2022/11/28 05:08:18;;;;;;;10.47;5.43;;;;;;;6.65;100.00;149127.94;5027197;28;20484;-63
2022/11/28 05:10:45;;;;;;;9.40;5.20;;;;;;;6.61;100.00;149117.63;5031117;28;20049;-63
2022/11/28 05:13:10;;;;;;;10.10;5.47;;;;;;;6.53;100.00;149096.97;5030715;28;20029;-63
2022/11/28 05:15:35;;;;;;;11.87;5.67;;;;;;;6.51;100.00;149091.81;5024546;28;20558;-63
2022/11/28 05:18:01;;;;;;;11.53;5.80;;;;;;;6.49;100.00;149086.66;5028257;28;20032;-63
2022/11/28 05:20:29;;;;;;;11.07;6.33;;;;;;;6.43;100.00;149073.78;5029351;28;20025;-63
2022/11/28 05:22:55;;;;;;;9.87;5.97;;;;;;;6.42;100.00;149069.84;5031086;28;20026;-63
2022/11/28 05:25:20;;;;;;;8.30;4.70;;;;;;;6.38;100.00;149060.84;5030985;28;20021;-63
2022/11/28 05:27:46;;;;;;;12.27;5.67;;;;;;;6.40;100.00;149066.00;5026888;28;20116;-63
2022/11/28 05:30:12;;;;;;;8.07;4.17;;;;;;;6.34;100.00;149049.25;5026351;28;20030;-63
2022/11/28 05:32:37;;;;;;;11.93;5.70;;;;;;;6.35;100.00;149053.09;5028291;28;20067;-63
2022/11/28 05:35:03;;;;;;;12.83;6.73;;;;;;;6.33;100.00;149046.66;5028188;28;20025;-63
2022/11/28 05:37:28;;;;;;;11.80;5.83;;;;;;;6.30;100.00;149038.88;5027296;28;20505;-63
2022/11/28 05:39:54;;;;;;;8.30;4.40;;;;;;;6.27;100.00;149032.44;5027320;28;20120;-64
2022/11/28 05:42:20;;;;;;;12.93;6.40;;;;;;;6.27;100.00;149032.44;5025411;28;20448;-64
2022/11/28 05:44:46;;;;;;;11.97;6.23;;;;;;;6.23;100.00;149022.13;5025694;28;20029;-64
2022/11/28 05:47:12;;;;;;;13.77;7.43;;;;;;;6.22;100.00;149019.56;5028987;28;20025;-64
2022/11/28 05:49:37;;;;;;;9.77;4.53;;;;;;;6.19;100.00;149010.53;5025374;28;20112;-65
2022/11/28 05:52:02;;;;;;;10.40;4.80;;;;;;;6.18;100.00;149009.25;5023518;28;20083;-64
2022/11/28 05:54:29;;;;;;;12.97;8.10;;;;;;;6.20;100.00;149014.41;5024649;28;20453;-64
2022/11/28 05:56:54;;;;;;;15.17;8.00;;;;;;;6.16;100.00;149004.06;5028998;28;20025;-64
2022/11/28 05:59:20;;;;;;;11.50;5.40;;;;;;;6.15;100.00;149001.47;5027611;28;20531;-64
2022/11/28 06:01:45;;;;;;;15.93;8.47;;;;;;;6.19;100.00;149011.84;5025151;28;20033;-64
2022/11/28 06:04:10;;;;;;;7.70;4.20;;;;;;;6.13;100.00;148997.59;5026662;28;20021;-65
2022/11/28 06:06:36;;;;;;;14.23;6.50;;;;;;;6.13;100.00;148997.59;5021271;28;20029;-65
2022/11/28 06:09:03;;;;;;;12.50;6.37;;;;;;;6.13;100.00;148996.31;5023877;28;20393;-66
2022/11/28 06:11:30;;;;;;;12.63;5.47;;;;;;;6.11;100.00;148991.16;5027140;28;20044;-65
2022/11/28 06:13:55;;;;;;;15.43;7.73;;;;;;;6.11;100.00;148991.16;5019053;28;20033;-65
2022/11/28 06:16:23;;;;;;;12.37;4.97;;;;;;;6.08;100.00;148983.44;5021558;28;20031;-65
2022/11/28 06:18:54;;;;;;;13.63;6.37;;;;;;;6.08;100.00;148984.72;5026832;28;20040;-65
2022/11/28 06:21:20;;;;;;;20.60;7.40;;;;;;;6.09;100.00;148987.31;5029409;28;20104;-65
2022/11/28 06:23:45;;;;;;;17.67;7.83;;;;;;;6.03;100.00;148970.50;5029064;28;20417;-65
2022/11/28 06:26:13;;;;;;;10.70;5.10;;;;;;;6.03;100.00;148970.50;5029793;28;20032;-65
2022/11/28 06:28:39;;;;;;;10.27;5.17;;;;;;;6.03;100.00;148970.50;5030341;28;20033;-65
2022/11/28 06:31:10;;;;;;;11.13;5.40;;;;;;;6.05;100.00;148975.66;5023262;28;20496;-65
2022/11/28 06:33:35;;;;;;;14.57;7.90;;;;;;;6.06;100.00;148978.28;5024294;28;20038;-65
2022/11/28 06:36:03;;;;;;;11.47;5.97;;;;;;;6.01;100.00;148965.38;5019987;28;20024;-65
2022/11/28 06:38:29;;;;;;;13.57;5.97;;;;;;;6.02;100.00;148967.94;5019430;28;20427;-65
2022/11/28 06:40:56;;;;;;;13.23;6.63;;;;;;;6.00;100.00;148964.06;5023023;28;20068;-65
2022/11/28 06:43:21;;;;;;;21.27;10.80;;;;;;;6.03;100.00;148970.50;5027950;28;20103;-65
2022/11/28 06:45:47;;;;;;;17.50;9.20;;;;;;;6.04;100.00;148973.09;5026603;28;20371;-65
2022/11/28 06:48:12;;;;;;;16.43;9.10;;;;;;;6.02;100.00;148967.94;5025665;28;20021;-65
2022/11/28 06:50:37;;;;;;;17.53;8.13;;;;;;;6.03;100.00;148970.50;5023095;28;20026;-65
2022/11/28 06:53:03;;;;;;;19.03;9.50;;;;;;;6.02;100.00;148967.94;5023316;28;20037;-65
2022/11/28 06:55:28;;;;;;;17.87;9.50;;;;;;;6.07;100.00;148980.88;5027555;28;20592;-65
2022/11/28 06:57:54;;;;;;;19.30;8.80;;;;;;;6.06;100.00;148978.28;5023957;28;20084;-65
2022/11/28 07:00:19;;;;;;;16.87;7.57;;;;;;;6.08;100.00;148983.44;5017058;28;20037;-65
2022/11/28 07:02:45;;;;;;;23.03;11.07;;;;;;;6.10;100.00;148989.88;5018326;28;20038;-65
2022/11/28 07:05:10;;;;;;;20.83;10.20;;;;;;;6.16;100.00;149004.06;5030326;28;20017;-65
2022/11/28 07:07:35;;;;;;;15.23;7.03;;;;;;;6.11;100.00;148991.16;5030083;28;20512;-65
2022/11/28 07:10:01;;;;;;;10.47;5.33;;;;;;;6.12;100.00;148993.75;5029626;28;20025;-65
2022/11/28 07:12:26;;;;;;;15.80;8.17;;;;;;;6.15;100.00;149001.47;5030134;28;20087;-64
2022/11/28 07:14:52;;;;;;;20.17;9.13;;;;;;;6.19;100.00;149011.84;5033762;28;20379;-65
2022/11/28 07:17:17;;;;;;;17.17;8.93;;;;;;;6.19;100.00;149011.84;5034118;28;20388;-65
2022/11/28 07:19:42;;;;;;;15.60;7.53;;;;;;;6.22;100.00;149019.56;5033761;28;20028;-65
2022/11/28 07:22:10;;;;;;;16.03;8.13;;;;;;;6.25;100.00;149027.28;5033666;28;20425;-65
2022/11/28 07:24:35;;;;;;;9.97;3.97;;;;;;;6.34;100.00;149050.53;5033620;28;20032;-65
2022/11/28 07:27:01;;;;;;;10.73;5.33;;;;;;;6.43;100.00;149073.78;5032792;28;20029;-65
2022/11/28 07:29:34;;;;;;;16.50;7.97;;;;;;;6.39;100.00;149063.41;5033700;28;20476;-65
2022/11/28 07:32:00;;;;;;;9.60;5.07;;;;;;;6.31;100.00;149042.81;5033137;28;20025;-64
2022/11/28 07:34:25;;;;;;;11.43;4.53;;;;;;;6.30;100.00;149040.22;5033469;28;20055;-65
2022/11/28 07:36:50;;;;;;;11.40;5.67;;;;;;;6.31;100.00;149042.81;5033956;28;20029;-65
2022/11/28 07:39:16;;;;;;;11.97;6.00;;;;;;;6.34;100.00;149050.53;5033497;28;20101;-65
2022/11/28 07:41:42;;;;;;;18.60;9.23;;;;;;;6.34;100.00;149050.53;5033531;28;20025;-64
2022/11/28 07:44:08;;;;;;;10.47;5.23;;;;;;;6.30;100.00;149040.22;5031888;28;20028;-64
2022/11/28 07:46:34;;;;;;;9.77;4.97;;;;;;;6.29;100.00;149037.59;5033627;28;20052;-64
2022/11/28 07:49:00;;;;;;;12.03;5.13;;;;;;;6.29;100.00;149037.59;5033407;28;20108;-64
2022/11/28 07:51:29;;;;;;;17.20;8.63;;;;;;;6.34;100.00;149049.25;5034441;28;20120;-64
2022/11/28 07:53:55;;;;;;;10.37;4.57;;;;;;;6.31;100.00;149042.81;5034213;28;20032;-65
2022/11/28 07:56:26;;;;;;;16.83;8.23;;;;;;;6.36;100.00;149054.41;5034640;28;20030;-65
2022/11/28 07:58:51;;;;;;;14.18;6.82;;;;;;;6.37;100.00;149058.25;5034223;28;20021;-65
2022/11/28 08:01:25;;;;;;;17.83;7.33;;;;;;;6.31;100.00;149042.81;5034485;28;20032;-65
2022/11/28 08:03:51;;;;;;;21.47;9.50;;;;;;;6.27;100.00;149032.44;5033853;28;20021;-65
2022/11/28 08:06:20;;;;;;;16.07;9.03;;;;;;;6.26;100.00;149029.88;5034434;28;20453;-65
2022/11/28 08:08:46;;;;;;;17.67;7.90;;;;;;;6.27;100.00;149032.44;5034414;28;20385;-65
2022/11/28 08:11:12;;;;;;;16.00;7.97;;;;;;;6.26;100.00;149029.88;5034070;28;20029;-65
2022/11/28 08:13:39;;;;;;;9.97;4.93;;;;;;;6.25;100.00;149026.00;5033923;28;20034;-65
2022/11/28 08:16:07;;;;;;;15.03;6.73;;;;;;;6.26;100.00;149028.56;5034268;28;20079;-65
2022/11/28 08:18:33;;;;;;;16.83;8.60;;;;;;;6.31;100.00;149042.81;5034169;28;20592;-65
2022/11/28 08:21:10;;;;;;;17.03;8.40;;;;;;;6.30;100.00;149040.22;5034091;28;20021;-65
2022/11/28 08:23:36;;;;;;;16.53;8.30;;;;;;;6.33;100.00;149047.94;5033767;28;20440;-65
2022/11/28 08:26:03;;;;;;;16.40;7.90;;;;;;;6.36;100.00;149055.69;5034021;28;20381;-64
2022/11/28 08:28:29;;;;;;;22.20;9.70;;;;;;;6.40;100.00;149066.00;5033913;28;20112;-65
2022/11/28 08:30:55;;;;;;;19.57;9.83;;;;;;;6.37;100.00;149058.25;5033369;28;20116;-65
2022/11/28 08:33:22;;;;;;;12.57;6.47;;;;;;;6.36;100.00;149054.41;5033689;28;20030;-65
2022/11/28 08:35:48;;;;;;;16.17;9.27;;;;;;;6.32;100.00;149045.38;5033505;28;20025;-65
2022/11/28 08:38:13;;;;;;;18.43;8.67;;;;;;;6.36;100.00;149055.69;5033977;28;20021;-65
2022/11/28 08:40:39;;;;;;;18.33;8.30;;;;;;;6.31;100.00;149042.81;5033592;28;20472;-65
2022/11/28 08:43:06;;;;;;;17.03;8.77;;;;;;;6.28;100.00;149035.03;5033739;28;20128;-65
2022/11/28 08:45:31;;;;;;;18.17;9.23;;;;;;;6.27;100.00;149031.16;5033291;28;20099;-65
2022/11/28 08:47:57;;;;;;;15.53;7.30;;;;;;;6.27;100.00;149032.44;5033449;28;20037;-65
2022/11/28 08:50:23;;;;;;;16.57;7.37;;;;;;;6.25;100.00;149027.28;5032822;28;20021;-65
2022/11/28 08:52:48;;;;;;;19.00;10.70;;;;;;;6.28;100.00;149035.03;5032105;28;20025;-65
2022/11/28 08:55:14;;;;;;;21.40;7.43;;;;;;;6.30;100.00;149040.22;5033372;28;20035;-65
2022/11/28 08:57:39;;;;;;;21.53;10.97;;;;;;;6.33;100.00;149047.94;5033542;28;20133;-65
2022/11/28 09:00:07;;;;;;;19.00;10.23;;;;;;;6.31;100.00;149042.81;5033521;28;20029;-65
2022/11/28 09:02:32;;;;;;;16.80;9.13;;;;;;;6.38;100.00;149059.56;5032823;28;20021;-65
2022/11/28 09:04:58;;;;;;;18.47;9.83;;;;;;;6.34;100.00;149050.53;5032888;28;20029;-64
2022/11/28 09:07:23;;;;;;;18.20;9.83;;;;;;;6.34;100.00;149050.53;5033303;28;20052;-64
2022/11/28 09:09:48;;;;;;;21.10;10.73;;;;;;;6.40;100.00;149066.00;5033335;28;20040;-65
2022/11/28 09:12:14;;;;;;;18.33;10.03;;;;;;;6.38;100.00;149060.84;5032928;28;20481;-64
2022/11/28 09:14:39;;;;;;;13.60;6.97;;;;;;;6.41;100.00;149067.28;5032929;28;20060;-64
2022/11/28 09:17:05;;;;;;;15.27;8.03;;;;;;;6.42;100.00;149071.19;5033172;28;20048;-65
2022/11/28 09:19:30;;;;;;;19.70;9.73;;;;;;;6.42;100.00;149071.19;5033172;28;20021;-65
2022/11/28 09:21:56;;;;;;;18.67;10.10;;;;;;;6.38;100.00;149060.84;5033083;28;20025;-65
2022/11/28 09:24:21;;;;;;;13.03;5.70;;;;;;;6.38;100.00;149060.84;5032986;28;20056;-65
2022/11/28 09:26:46;;;;;;;14.97;8.63;;;;;;;6.44;100.00;149076.34;5033035;28;20449;-65
2022/11/28 09:29:12;;;;;;;18.67;9.17;;;;;;;6.45;100.00;149078.94;5032972;28;20025;-65
2022/11/28 09:31:37;;;;;;;16.07;8.43;;;;;;;6.52;100.00;149094.38;5032299;28;20045;-65
2022/11/28 09:34:03;;;;;;;17.70;9.33;;;;;;;6.46;100.00;149081.50;5032627;28;20481;-65
2022/11/28 09:36:30;;;;;;;15.50;8.70;;;;;;;6.49;100.00;149087.94;5032099;28;20040;-65
2022/11/28 09:38:58;;;;;;;17.73;9.50;;;;;;;6.55;100.00;149102.16;5032433;28;20033;-65
2022/11/28 09:41:27;;;;;;;18.70;8.93;;;;;;;6.46;100.00;149081.50;5032662;28;20082;-65
2022/11/28 09:44:14;;;;;;;19.03;9.07;;;;;;;6.46;100.00;149080.22;5032385;28;20029;-65
2022/11/28 09:46:41;;;;;;;15.30;8.37;;;;;;;6.45;100.00;149078.94;5032227;28;20430;-65
2022/11/28 09:49:39;;;;;;;13.67;5.63;;;;;;;6.41;100.00;149068.56;5032659;28;20377;-65
2022/11/28 09:52:18;;;;;;;15.83;9.03;;;;;;;6.52;100.00;149094.38;5035222;28;20072;-65
2022/11/28 09:54:50;;;;;;;19.77;9.73;;;;;;;6.54;100.00;149099.53;5032129;28;20029;-65
2022/11/28 09:57:36;;;;;;;17.10;8.63;;;;;;;6.52;100.00;149095.69;5032013;28;20115;-65
2022/11/28 10:00:02;;;;;;;18.60;10.37;;;;;;;6.56;100.00;149106.03;5032049;28;20030;-65
2022/11/28 10:02:38;;;;;;;20.83;8.93;;;;;;;6.54;100.00;149100.88;5032122;28;20025;-64
2022/11/28 10:05:30;;;;;;;17.57;9.17;;;;;;;6.60;100.00;149115.06;5032267;28;20160;-65
2022/11/28 10:08:22;;;;;;;13.33;6.57;;;;;;;6.60;100.00;149115.06;5032302;28;20079;-65
2022/11/28 10:11:02;;;;;;;14.13;6.65;;;;;;;6.57;100.00;149107.31;5032201;28;20538;-65
2022/11/28 10:13:46;;;;;;;19.13;10.00;;;;;;;6.64;100.00;149125.38;5032238;28;20091;-65
2022/11/28 10:16:34;;;;;;;17.17;8.53;;;;;;;6.65;100.00;149127.94;5032159;28;20025;-65
2022/11/28 10:19:08;;;;;;;15.80;8.40;;;;;;;6.72;100.00;149146.03;5032043;28;20492;-64
2022/11/28 10:21:51;;;;;;;17.93;9.03;;;;;;;6.70;100.00;149140.88;5031848;28;20023;-65
2022/11/28 10:24:29;;;;;;;19.33;9.87;;;;;;;6.78;100.00;149161.50;5032027;28;20025;-65
2022/11/28 10:27:00;;;;;;;16.87;9.33;;;;;;;6.76;100.00;149157.63;5031757;28;20392;-65
2022/11/28 10:29:38;;;;;;;18.23;8.17;;;;;;;6.78;100.00;149161.50;5031054;28;20032;-65
2022/11/28 10:32:05;;;;;;;12.67;6.93;;;;;;;6.71;100.00;149144.75;5031792;28;20030;-65
2022/11/28 10:34:44;;;;;;;15.83;7.67;;;;;;;6.78;100.00;149161.50;5031948;28;20022;-65
2022/11/28 10:37:18;;;;;;;17.27;9.40;;;;;;;6.91;100.00;149195.13;5031902;28;20046;-65
2022/11/28 10:39:46;;;;;;;18.03;9.13;;;;;;;6.95;100.00;149204.13;5031492;28;20032;-65
2022/11/28 10:42:35;;;;;;;17.00;9.33;;;;;;;7.01;100.00;149219.59;5031547;28;20036;-64
2022/11/28 10:45:27;;;;;;;13.63;6.50;;;;;;;7.05;100.00;149231.25;5031765;28;20095;-64
2022/11/28 10:47:59;;;;;;;12.97;6.83;;;;;;;7.07;100.00;149233.84;5034536;28;20021;-65
2022/11/28 10:50:32;;;;;;;15.20;5.60;;;;;;;7.09;100.00;149239.00;5035432;28;20473;-64
2022/11/28 10:53:12;;;;;;;21.27;7.30;;;;;;;7.16;100.00;149257.09;5035803;28;20038;-65
2022/11/28 10:56:09;;;;;;;15.47;8.27;;;;;;;7.25;100.00;149280.31;5035473;28;20037;-65
2022/11/28 10:58:51;;;;;;;10.93;5.30;;;;;;;7.19;100.00;149264.84;5035314;28;20108;-64
2022/11/28 11:01:16;;;;;;;14.95;8.05;;;;;;;7.26;100.00;149282.88;5050796;28;20072;-64
2022/11/28 11:03:42;;;;;;;15.20;7.47;;;;;;;7.33;100.00;149301.00;5035407;28;20034;-64
2022/11/28 11:06:08;;;;;;;13.50;6.57;;;;;;;7.38;100.00;149312.59;5035560;28;20061;-64
2022/11/28 11:08:36;;;;;;;13.17;6.83;;;;;;;7.40;100.00;149319.09;5035500;28;20064;-64
2022/11/28 11:11:04;;;;;;;18.20;9.13;;;;;;;7.45;100.00;149330.69;5035710;28;20424;-64
2022/11/28 11:13:52;;;;;;;14.87;7.47;;;;;;;7.46;100.00;149334.56;5035691;28;20372;-64
2022/11/28 11:16:17;;;;;;;15.97;7.80;;;;;;;7.45;100.00;149332.00;5035552;28;20496;-64
2022/11/28 11:18:43;;;;;;;13.63;7.67;;;;;;;7.48;100.00;149339.72;5035116;28;20079;-64
2022/11/28 11:21:17;;;;;;;13.53;7.07;;;;;;;7.46;100.00;149334.56;5035127;28;20025;-64
2022/11/28 11:23:44;;;;;;;15.40;8.93;;;;;;;7.50;100.00;149344.88;5035278;28;20449;-64
2022/11/28 11:26:24;;;;;;;18.77;10.13;;;;;;;7.48;100.00;149338.44;5034890;28;20424;-64
2022/11/28 11:28:50;;;;;;;15.10;9.17;;;;;;;7.50;100.00;149344.88;5034809;28;20025;-64
2022/11/28 11:31:29;;;;;;;17.70;9.47;;;;;;;7.51;100.00;149347.50;5034570;28;20039;-64
2022/11/28 11:34:14;;;;;;;16.27;7.73;;;;;;;7.44;100.00;149328.13;5035371;28;20044;-64
2022/11/28 11:36:39;;;;;;;13.40;6.47;;;;;;;7.42;100.00;149322.97;5035206;28;20028;-64